Stations météo

réclame
Mon MeteoGroup
Desenzano, Italie (16089): Température de l'air & dewpoint: 16.06.2018 19:00:00 - 22.06.2018 19:00:00 (CEST)Desenzano, Italie (16089): Vitesse du vent: 16.06.2018 19:00:00 - 22.06.2018 19:00:00 (CEST)Desenzano, Italie (16089): Direction du vent: 16.06.2018 19:00:00 - 22.06.2018 19:00:00 (CEST)Desenzano, Italie (16089): reduced air pressure: 16.06.2018 19:00:00 - 22.06.2018 19:00:00 (CEST)Desenzano, Italie (16089): Quantités de précipitations: 16.06.2018 19:00:00 - 22.06.2018 19:00:00 (CEST)
Date & Time tt [°C] td [°C] ff [km/h] ff [knt] dd ppp [hPa] rr [mm]
22.06.2018 19:00:00 - - - - - - -
22.06.2018 18:00:00 25,1 17,5 16 9 E 1014,1 -
22.06.2018 17:00:00 25,6 18,7 16 9 ENE 1013,6 -
22.06.2018 16:00:00 25,4 19,0 15 8 E 1013,3 -
22.06.2018 15:00:00 26,3 19,9 15 8 E 1013,3 -
22.06.2018 14:00:00 26,5 19,8 22 12 E 1013,2 0,0
22.06.2018 13:00:00 26,1 20,1 16 9 E 1013,3 -
22.06.2018 12:00:00 26,0 21,2 15 8 W 1013,1 -
22.06.2018 11:00:00 26,1 21,7 15 8 E 1012,3 -
22.06.2018 10:00:00 24,7 21,2 13 7 E 1012,1 -
22.06.2018 09:00:00 25,0 21,0 9 5 E 1011,3 -
22.06.2018 08:00:00 25,4 22,6 8 4 E 1010,6 0,0
22.06.2018 07:00:00 25,4 23,8 5 3 N 1010,1 -
22.06.2018 06:00:00 24,5 22,5 0 0 N 1009,7 -
22.06.2018 05:00:00 24,6 20,9 0 0 N 1009,6 -
22.06.2018 04:00:00 24,8 20,4 0 0 N 1009,6 -
22.06.2018 03:00:00 24,9 20,7 0 0 N 1010,0 -
22.06.2018 02:00:00 25,4 22,6 0 0 N 1010,6 0,0
22.06.2018 01:00:00 25,8 22,6 2 1 WNW 1011,1 -
22.06.2018 00:00:00 26,4 23,4 0 0 N 1011,2 -
21.06.2018 23:00:00 26,5 22,1 0 0 N 1011,3 -
21.06.2018 22:00:00 26,8 21,9 0 0 N 1010,9 -
21.06.2018 21:00:00 28,0 22,2 2 1 W 1010,6 -
21.06.2018 20:00:00 29,2 20,0 2 1 SSW 1010,5 0,0
21.06.2018 19:00:00 29,7 19,9 5 3 SSW 1010,9 -
21.06.2018 18:00:00 29,8 19,7 5 3 SW 1011,2 -
21.06.2018 17:00:00 30,5 19,8 5 3 SSW 1011,8 -
21.06.2018 16:00:00 30,6 20,5 8 4 SW 1012,4 -
21.06.2018 15:00:00 30,8 20,4 5 3 SW 1013,1 -
21.06.2018 14:00:00 30,9 21,1 5 3 W 1014,1 0,0
21.06.2018 13:00:00 29,6 20,4 5 3 SW 1014,6 -
21.06.2018 12:00:00 27,4 21,8 4 2 ENE 1015,3 -
21.06.2018 11:00:00 26,6 20,8 4 2 N 1015,8 -
21.06.2018 10:00:00 26,1 20,6 5 3 N 1016,5 -
21.06.2018 09:00:00 26,0 21,2 5 3 NNW 1016,5 -
21.06.2018 08:00:00 25,7 21,3 8 4 NNW 1016,5 0,0
21.06.2018 07:00:00 25,3 21,5 9 5 WNW 1016,5 -
21.06.2018 06:00:00 24,9 22,1 9 5 NNW 1016,6 -
21.06.2018 05:00:00 24,4 22,0 4 2 WNW 1016,9 -
21.06.2018 04:00:00 24,1 20,6 0 0 N 1017,5 -
21.06.2018 03:00:00 24,3 20,6 0 0 N 1017,9 -
21.06.2018 02:00:00 24,9 21,1 0 0 N 1018,1 0,0
21.06.2018 01:00:00 25,2 21,6 4 2 NNE 1018,2 -
21.06.2018 00:00:00 25,6 22,4 0 0 N 1018,5 -
20.06.2018 23:00:00 25,9 22,7 0 0 N 1018,5 -
20.06.2018 22:00:00 26,4 21,1 0 0 N 1018,2 -
20.06.2018 21:00:00 27,2 18,4 0 0 N 1017,5 -
20.06.2018 20:00:00 28,0 22,2 2 1 NNE 1017,5 0,0
20.06.2018 19:00:00 28,1 21,6 4 2 N 1017,6 -
20.06.2018 18:00:00 28,1 20,3 5 3 NNW 1018,1 -
20.06.2018 17:00:00 28,3 20,5 8 4 NNW 1018,6 -
20.06.2018 16:00:00 28,2 20,9 8 4 NNW 1019,0 -
20.06.2018 15:00:00 28,5 21,2 8 4 NNW 1019,5 -
20.06.2018 14:00:00 29,1 20,5 4 2 NNE 1020,0 0,0
20.06.2018 13:00:00 28,0 21,2 8 4 NW 1020,6 -
20.06.2018 12:00:00 27,1 21,3 8 4 NNW 1020,9 -
20.06.2018 11:00:00 - - - - - - -
20.06.2018 10:00:00 25,7 22,1 11 6 NNW 1021,1 -
20.06.2018 09:00:00 25,4 21,0 11 6 N 1021,0 -
20.06.2018 08:00:00 25,7 21,5 9 5 NW 1020,8 0,0
20.06.2018 07:00:00 25,6 21,0 8 4 NNW 1020,6 -
20.06.2018 06:00:00 25,4 21,0 9 5 NNW 1020,2 -
20.06.2018 05:00:00 25,4 21,0 9 5 NW 1019,9 -
20.06.2018 04:00:00 25,5 21,1 2 1 WNW 1020,0 -
20.06.2018 03:00:00 25,0 20,4 0 0 N 1020,2 -
20.06.2018 02:00:00 25,4 21,4 4 2 NW 1020,4 0,0
20.06.2018 01:00:00 25,5 22,7 5 3 NW 1020,2 -
20.06.2018 00:00:00 25,2 21,2 0 0 N 1020,0 -
19.06.2018 23:00:00 25,8 21,2 2 1 ENE 1019,4 -
19.06.2018 22:00:00 26,3 18,6 0 0 N 1018,8 -
19.06.2018 21:00:00 27,5 18,4 0 0 N 1018,1 -
19.06.2018 20:00:00 27,9 18,8 0 0 N 1017,9 0,0
19.06.2018 19:00:00 27,5 20,5 8 4 N 1017,9 -
19.06.2018 18:00:00 27,5 22,6 5 3 N 1018,0 -
19.06.2018 17:00:00 27,8 21,5 9 5 NNW 1018,3 -
19.06.2018 16:00:00 27,8 21,8 9 5 NW 1018,5 -
19.06.2018 15:00:00 28,2 22,4 9 5 NNW 1019,0 -
19.06.2018 14:00:00 27,6 21,3 8 4 NW 1019,5 0,0
19.06.2018 13:00:00 26,8 20,8 5 3 N 1019,8 -
19.06.2018 12:00:00 26,2 20,0 9 5 NNW 1020,0 -
19.06.2018 11:00:00 25,4 20,8 13 7 NNW 1020,3 -
19.06.2018 10:00:00 25,4 20,4 15 8 NNW 1020,4 -
19.06.2018 09:00:00 25,2 19,5 22 12 NNW 1020,2 -
19.06.2018 08:00:00 25,1 19,2 24 13 NNW 1019,7 0,0
19.06.2018 07:00:00 25,0 19,3 22 12 NNW 1019,3 -
19.06.2018 06:00:00 25,0 19,8 21 11 NNW 1019,0 -
19.06.2018 05:00:00 25,2 20,2 8 4 NW 1018,7 -
19.06.2018 04:00:00 25,1 21,5 13 7 N 1018,6 -
19.06.2018 03:00:00 25,4 20,8 9 5 NW 1018,2 -
19.06.2018 02:00:00 25,5 21,1 9 5 WNW 1018,2 0,0
19.06.2018 01:00:00 25,5 20,9 5 3 NW 1018,2 -
19.06.2018 00:00:00 25,5 21,1 5 3 WNW 1017,9 -
18.06.2018 23:00:00 25,7 21,7 5 3 NW 1017,4 -
18.06.2018 22:00:00 25,5 19,6 0 0 N 1016,6 -
18.06.2018 21:00:00 26,0 19,6 0 0 N 1015,7 -
18.06.2018 20:00:00 27,0 21,9 0 0 N 1015,4 0,0
18.06.2018 19:00:00 27,4 21,4 4 2 N 1015,1 -
18.06.2018 18:00:00 27,6 21,3 5 3 NE 1015,2 -
18.06.2018 17:00:00 27,8 21,5 9 5 NE 1015,4 -
18.06.2018 16:00:00 27,3 19,3 5 3 NNE 1015,7 -
18.06.2018 15:00:00 27,2 19,5 8 4 N 1016,0 -
18.06.2018 14:00:00 27,2 20,0 9 5 N 1016,4 0,0
18.06.2018 13:00:00 28,4 19,3 2 1 NNW 1016,8 -
18.06.2018 12:00:00 27,2 20,2 2 1 SSW 1016,9 -
18.06.2018 11:00:00 24,9 20,5 8 4 NNW 1016,9 -
18.06.2018 10:00:00 24,7 19,2 9 5 NNW 1016,9 -
18.06.2018 09:00:00 24,5 19,3 13 7 NE 1016,9 -
18.06.2018 08:00:00 23,9 17,8 21 11 ENE 1016,5 0,0
18.06.2018 07:00:00 25,0 20,6 26 14 N 1016,1 -
18.06.2018 06:00:00 25,0 20,4 28 15 NW 1015,1 -
18.06.2018 05:00:00 25,2 20,0 0 0 N 1014,5 -
18.06.2018 04:00:00 25,4 21,6 9 5 NNW 1014,2 -
18.06.2018 03:00:00 25,6 21,8 11 6 NNW 1014,1 -
18.06.2018 02:00:00 25,7 22,7 9 5 NNW 1014,0 0,0
18.06.2018 01:00:00 26,0 22,2 5 3 NNW 1014,2 -
18.06.2018 00:00:00 25,7 22,3 0 0 N 1013,9 -
17.06.2018 23:00:00 25,8 22,6 0 0 N 1013,5 -
17.06.2018 22:00:00 26,0 21,4 0 0 N 1013,0 -
17.06.2018 21:00:00 26,9 22,5 4 2 NNW 1012,4 -
17.06.2018 20:00:00 27,9 19,4 0 0 N 1012,0 0,0
17.06.2018 19:00:00 27,7 21,9 4 2 N 1011,9 -
17.06.2018 18:00:00 27,8 21,1 5 3 NNE 1012,0 -
17.06.2018 17:00:00 28,7 19,6 8 4 N 1012,3 -
17.06.2018 16:00:00 28,9 19,5 2 1 N 1012,6 -
17.06.2018 15:00:00 28,8 19,9 5 3 NE 1012,9 -
17.06.2018 14:00:00 28,5 19,9 4 2 WSW 1013,4 0,0
17.06.2018 13:00:00 27,1 20,9 0 0 N 1013,8 -
17.06.2018 12:00:00 26,2 20,5 4 2 NW 1014,1 -
17.06.2018 11:00:00 25,2 21,0 9 5 NNW 1014,2 -
17.06.2018 10:00:00 24,8 21,1 13 7 NNW 1014,2 -
17.06.2018 09:00:00 24,4 20,9 9 5 NW 1014,1 -
17.06.2018 08:00:00 24,3 21,2 9 5 NNW 1013,9 0,0
17.06.2018 07:00:00 24,2 20,7 13 7 WNW 1013,5 -
17.06.2018 06:00:00 24,2 20,7 13 7 NW 1013,2 -
17.06.2018 05:00:00 24,6 20,2 9 5 NW 1013,3 -
17.06.2018 04:00:00 24,5 20,1 8 4 NW 1013,4 -
17.06.2018 03:00:00 24,8 20,0 5 3 WNW 1013,4 -
17.06.2018 02:00:00 24,9 20,5 5 3 NW 1013,2 0,0
17.06.2018 01:00:00 24,9 21,1 5 3 NNW 1013,1 -
17.06.2018 00:00:00 24,4 21,1 2 1 NNW 1013,0 -
16.06.2018 23:00:00 24,8 21,3 0 0 N 1012,6 -
16.06.2018 22:00:00 25,4 20,4 4 2 WNW 1012,1 -
16.06.2018 21:00:00 26,1 17,1 0 0 N 1011,5 -
16.06.2018 20:00:00 27,0 17,1 0 0 N 1011,3 0,0
16.06.2018 19:00:00 27,2 17,3 2 1 SE 1011,3 -

tt = Température de l'air
td = dewpoint
ff = Vitesse du vent
dd = Direction du vent
ppp = reduced air pressure
rr = Quantités de précipitations

stations d'obs. à proximité